»·PEaware :: SWA941 KLAX-KDAL

SWA941 :: KLAX-KDAL

FLIGHT INFORMATION

Flight Status: Arrived
Operator:
Southwest Airlines
More flights by this operator :: More flights under this callsign
Pilot: Drew L. (13237)
Aircraft: BOEING 737-800
(B738)
More flights by this aircraft type
Origin: KLAX Los Angeles Intl
United States
Destination: KDAL Dallas Love
United States
More flights between these airports :: More routes between these airports
Route: ++ EWM PHILS BGTOE BACHR4
File this flight plan on PilotEdge
Remarks: RMK / SIMBRIEF
Altitude:
(Current/Filed)
35,000ft
Speed:
(Current/Filed)
469kts
Departed: 21-Nov-19 05:40 PM
Arrived: 21-Nov-19 08:05 PM
Distance/Time
Traveled:
1080nm/2:25
Distance/Time
To Go:
Arrived

Flight Plot

Page will automatically refresh every two minutes.

Flight plan parsing failed; only flown route is shown


Map Options




Map Legend


Flown Route
Filed Route
Departure Airport
Arrival Airport
Navaid (VOR, NDB)
Fix

Horizontal Profiles

Position Reports

Time Latitude Longitude Heading Altitude Ground
Speed
21-Nov-19 17:19 33.946241 -118.400054 165 134ft 0kts
21-Nov-19 17:20 33.946241 -118.400054 165 134ft 0kts
21-Nov-19 17:21 33.946241 -118.400054 165 134ft 0kts
21-Nov-19 17:22 33.946241 -118.400054 165 134ft 0kts
21-Nov-19 17:23 33.946241 -118.400054 165 134ft 0kts
21-Nov-19 17:24 33.946241 -118.400054 165 134ft 0kts
21-Nov-19 17:25 33.946241 -118.400054 165 134ft 0kts
21-Nov-19 17:26 33.946241 -118.400054 165 134ft 0kts
21-Nov-19 17:27 33.946241 -118.400054 166 134ft 0kts
21-Nov-19 17:28 33.946241 -118.400054 166 134ft 0kts
21-Nov-19 17:29 33.946388 -118.400097 166 134ft 2kts
21-Nov-19 17:30 33.946983 -118.400151 179 134ft 2kts
21-Nov-19 17:31 33.947582 -118.400138 183 134ft 2kts
21-Nov-19 17:32 33.948163 -118.400079 176 134ft 2kts
21-Nov-19 17:33 33.948454 -118.400614 78 134ft 2kts
21-Nov-19 17:34 33.948377 -118.401334 82 134ft 2kts
21-Nov-19 17:35 33.948361 -118.401485 82 134ft 0kts
21-Nov-19 17:36 33.948361 -118.401485 82 134ft 0kts
21-Nov-19 17:37 33.949250 -118.399967 82 134ft 6kts
21-Nov-19 17:38 33.949278 -118.399753 79 134ft 0kts
21-Nov-19 17:39 33.950233 -118.401268 261 134ft 47kts
21-Nov-19 17:40 33.945358 -118.451149 262 1320ft 195kts
21-Nov-19 17:41 33.941770 -118.511828 266 3752ft 177kts
21-Nov-19 17:42 33.936221 -118.586084 264 5422ft 257kts
21-Nov-19 17:43 33.887091 -118.641530 179 7523ft 282kts
21-Nov-19 17:44 33.812138 -118.614305 147 10193ft 293kts
21-Nov-19 17:45 33.745670 -118.560114 146 11731ft 336kts
21-Nov-19 17:46 33.683921 -118.473630 112 13985ft 356kts
21-Nov-19 17:47 33.650639 -118.360787 103 16027ft 374kts
21-Nov-19 17:48 33.644624 -118.232632 87 17971ft 390kts
21-Nov-19 17:49 33.644735 -118.097278 87 19603ft 412kts
21-Nov-19 17:50 33.644626 -117.957313 86 21285ft 428kts
21-Nov-19 17:51 33.643146 -117.811729 93 22831ft 446kts
21-Nov-19 17:52 33.612070 -117.664355 104 24263ft 464kts
21-Nov-19 17:53 33.574621 -117.513099 104 25607ft 479kts
21-Nov-19 17:54 33.535894 -117.357075 104 26695ft 497kts
21-Nov-19 17:55 33.505251 -117.194085 89 27833ft 503kts
21-Nov-19 17:56 33.502113 -117.024623 86 29214ft 506kts
21-Nov-19 17:57 33.499693 -116.856313 87 30769ft 502kts
21-Nov-19 17:58 33.497064 -116.689007 87 32023ft 503kts
21-Nov-19 18:00 33.494194 -116.521082 87 33203ft 504kts
21-Nov-19 18:01 33.491111 -116.352136 86 34367ft 503kts
21-Nov-19 18:02 33.488649 -116.184988 87 34966ft 503kts
21-Nov-19 18:03 33.494423 -116.019468 71 34976ft 488kts
21-Nov-19 18:04 33.535180 -115.866305 63 34973ft 483kts
21-Nov-19 18:05 33.580221 -115.712290 63 34981ft 501kts
21-Nov-19 18:06 33.614618 -115.546338 81 34980ft 521kts
21-Nov-19 18:07 33.612736 -115.372195 87 34986ft 523kts
21-Nov-19 18:08 33.608342 -115.195482 88 34991ft 531kts
21-Nov-19 18:09 33.603643 -115.018680 89 34998ft 525kts
21-Nov-19 18:10 33.598791 -114.844819 89 35001ft 522kts
21-Nov-19 18:11 33.587125 -114.670764 98 35005ft 526kts
21-Nov-19 18:12 33.559983 -114.498673 99 35006ft 525kts
21-Nov-19 18:13 33.532402 -114.327138 100 34999ft 526kts
21-Nov-19 18:14 33.504772 -114.156068 100 34996ft 525kts
21-Nov-19 18:15 33.476614 -113.983441 100 34992ft 525kts
21-Nov-19 18:16 33.448248 -113.811306 100 35009ft 525kts
21-Nov-19 18:17 33.419546 -113.638868 100 35010ft 526kts
21-Nov-19 18:18 33.390714 -113.467365 100 35007ft 525kts
21-Nov-19 18:19 33.362163 -113.299001 100 34997ft 525kts
21-Nov-19 18:20 33.333211 -113.129069 100 34999ft 525kts
21-Nov-19 18:20 33.308593 -112.985824 101 35000ft 526kts
21-Nov-19 18:22 33.273757 -112.785036 104 35003ft 525kts
21-Nov-19 18:23 33.243877 -112.614628 104 35010ft 524kts
21-Nov-19 18:23 33.218609 -112.471771 104 35028ft 525kts
21-Nov-19 18:24 33.188073 -112.300440 105 35048ft 524kts
21-Nov-19 18:26 33.152454 -112.101659 104 35037ft 524kts
21-Nov-19 18:26 33.126826 -111.959947 104 35051ft 525kts
21-Nov-19 18:27 33.095736 -111.789497 105 35079ft 529kts
21-Nov-19 18:29 33.058418 -111.587033 105 35101ft 540kts
21-Nov-19 18:29 33.031149 -111.440466 105 35099ft 546kts
21-Nov-19 18:30 32.997652 -111.261598 106 35076ft 554kts
21-Nov-19 18:31 32.963641 -111.080914 106 35072ft 565kts
21-Nov-19 18:32 32.929002 -110.898479 108 35070ft 562kts
21-Nov-19 18:33 32.894267 -110.717331 108 35081ft 561kts
21-Nov-19 18:34 32.859185 -110.536191 108 35089ft 562kts
21-Nov-19 18:35 32.823832 -110.355329 108 35099ft 561kts
21-Nov-19 18:36 32.788461 -110.174920 109 35079ft 560kts
21-Nov-19 18:37 32.752658 -109.993883 109 35083ft 562kts
21-Nov-19 18:38 32.716701 -109.813696 109 35087ft 561kts
21-Nov-19 18:39 32.680479 -109.633847 109 35092ft 560kts
21-Nov-19 18:40 32.643954 -109.454138 109 35096ft 560kts
21-Nov-19 18:41 32.607557 -109.276295 109 35076ft 560kts
21-Nov-19 18:42 32.570755 -109.097106 110 35080ft 557kts
21-Nov-19 18:43 32.533924 -108.919230 110 35085ft 549kts
21-Nov-19 18:44 32.497078 -108.743057 110 35116ft 551kts
21-Nov-19 18:45 32.460079 -108.567580 110 35126ft 549kts
21-Nov-19 18:46 32.422642 -108.391605 110 35132ft 552kts
21-Nov-19 18:47 32.385843 -108.219245 111 35112ft 549kts
21-Nov-19 18:48 32.348194 -108.044054 111 35105ft 551kts
21-Nov-19 18:49 32.310208 -107.868707 111 35102ft 551kts
21-Nov-19 18:50 32.271860 -107.693150 111 35104ft 550kts
21-Nov-19 18:51 32.233384 -107.518410 111 35108ft 550kts
21-Nov-19 18:52 32.194551 -107.343413 112 35121ft 550kts
21-Nov-19 18:53 32.155796 -107.169192 112 35112ft 550kts
21-Nov-19 18:54 32.116755 -106.994990 112 35115ft 547kts
21-Nov-19 18:55 32.078096 -106.823511 113 35117ft 530kts
21-Nov-19 18:56 32.040287 -106.657346 113 35111ft 527kts
21-Nov-19 18:57 32.001793 -106.489659 113 35104ft 531kts
21-Nov-19 18:58 31.963299 -106.322430 112 35090ft 530kts
21-Nov-19 18:59 31.959373 -106.145093 90 35095ft 552kts
21-Nov-19 19:00 31.971051 -105.964473 89 35092ft 551kts
21-Nov-19 19:01 31.982032 -105.783186 89 35098ft 554kts
21-Nov-19 19:02 31.992767 -105.601841 89 35103ft 555kts
21-Nov-19 19:03 32.003281 -105.420430 89 35108ft 554kts
21-Nov-19 19:04 32.013530 -105.239922 90 35073ft 555kts
21-Nov-19 19:05 32.023517 -105.058448 90 35040ft 554kts
21-Nov-19 19:06 32.033202 -104.877545 90 35043ft 554kts
21-Nov-19 19:07 32.042648 -104.696175 90 35048ft 552kts
21-Nov-19 19:08 32.051775 -104.516176 91 35051ft 551kts
21-Nov-19 19:09 32.060644 -104.335975 91 35047ft 551kts
21-Nov-19 19:10 32.069334 -104.155645 91 35036ft 551kts
21-Nov-19 19:11 32.077757 -103.974422 91 35041ft 553kts
21-Nov-19 19:12 32.085910 -103.793233 91 35027ft 552kts
21-Nov-19 19:13 32.093770 -103.612757 91 35005ft 551kts
21-Nov-19 19:14 32.101379 -103.432081 91 34975ft 553kts
21-Nov-19 19:15 32.108851 -103.250683 92 34954ft 548kts
21-Nov-19 19:16 32.115923 -103.070814 92 35057ft 547kts
21-Nov-19 19:17 32.122590 -102.894656 92 35054ft 532kts
21-Nov-19 19:18 32.128977 -102.719634 92 35038ft 536kts
21-Nov-19 19:19 32.135159 -102.543816 92 35039ft 535kts
21-Nov-19 19:20 32.141080 -102.368793 92 35048ft 536kts
21-Nov-19 19:21 32.146825 -102.193776 92 35042ft 532kts
21-Nov-19 19:22 32.152234 -102.018545 93 35051ft 535kts
21-Nov-19 19:23 32.157439 -101.843371 93 35074ft 535kts
21-Nov-19 19:24 32.162373 -101.668928 93 35094ft 534kts
21-Nov-19 19:25 32.167113 -101.493165 93 35096ft 533kts
21-Nov-19 19:26 32.171546 -101.318955 93 35086ft 533kts
21-Nov-19 19:27 32.175835 -101.143555 93 35085ft 535kts
21-Nov-19 19:28 32.179816 -100.968768 93 35096ft 534kts
21-Nov-19 19:29 32.183595 -100.791963 93 35126ft 544kts
21-Nov-19 19:30 32.187166 -100.613895 93 35131ft 539kts
21-Nov-19 19:31 32.190454 -100.436930 93 35136ft 540kts
21-Nov-19 19:32 32.191111 -100.259517 98 35114ft 539kts
21-Nov-19 19:33 32.188424 -100.082490 96 35091ft 537kts
21-Nov-19 19:34 32.186798 -99.906436 96 35089ft 539kts
21-Nov-19 19:35 32.184934 -99.729233 96 35088ft 539kts
21-Nov-19 19:36 32.183121 -99.552852 96 35092ft 539kts
21-Nov-19 19:37 32.181058 -99.375993 96 35084ft 537kts
21-Nov-19 19:38 32.179015 -99.215714 96 35059ft 539kts
21-Nov-19 19:39 32.176383 -99.033194 96 35059ft 541kts
21-Nov-19 19:40 32.173530 -98.853257 97 34883ft 556kts
21-Nov-19 19:41 32.178244 -98.671355 88 33130ft 555kts
21-Nov-19 19:42 32.194557 -98.491300 87 31150ft 552kts
21-Nov-19 19:43 32.210172 -98.314074 88 28802ft 547kts
21-Nov-19 19:44 32.224344 -98.152441 88 26552ft 545kts
21-Nov-19 19:45 32.239415 -97.977623 88 23910ft 520kts
21-Nov-19 19:46 32.253291 -97.813053 88 21268ft 480kts
21-Nov-19 19:47 32.265286 -97.662958 87 18665ft 441kts
21-Nov-19 19:48 32.276672 -97.523824 84 16070ft 413kts
21-Nov-19 19:49 32.314846 -97.400284 64 13501ft 393kts
21-Nov-19 19:50 32.361723 -97.287346 63 10890ft 372kts
21-Nov-19 19:51 32.404039 -97.184051 62 9644ft 318kts
21-Nov-19 19:52 32.441503 -97.092009 63 8150ft 306kts
21-Nov-19 19:53 32.477572 -97.001538 66 6649ft 301kts
21-Nov-19 19:54 32.511789 -96.914911 68 5692ft 279kts
21-Nov-19 19:55 32.544285 -96.835315 66 5001ft 251kts
21-Nov-19 19:56 32.574211 -96.771253 41 5033ft 209kts
21-Nov-19 19:57 32.618638 -96.723544 38 4877ft 218kts
21-Nov-19 19:58 32.666328 -96.684323 11 3343ft 201kts
21-Nov-19 19:59 32.716668 -96.696383 323 3121ft 190kts
21-Nov-19 20:00 32.750865 -96.733820 316 2611ft 138kts
21-Nov-19 20:01 32.779446 -96.766773 314 2188ft 138kts
21-Nov-19 20:02 32.805237 -96.796585 316 1512ft 128kts
21-Nov-19 20:03 32.832811 -96.828601 316 782ft 137kts
21-Nov-19 20:04 32.852501 -96.851403 286 492ft 22kts
21-Nov-19 20:05 32.850919 -96.852299 178 492ft 6kts
21-Nov-19 20:06 32.847730 -96.848961 174 492ft 10kts
21-Nov-19 20:07 32.846501 -96.848920 178 492ft 0kts

Navigation Log

Ident Type
Flight plan parsing failed, navigation log unavailable